createdAt,value
2023-02-20T00:00:28.886Z,100596.91
2023-02-20T00:05:50.779Z,100585.00
2023-02-20T00:11:12.724Z,100577.34
2023-02-20T00:16:34.669Z,100570.50
2023-02-20T00:21:56.587Z,100553.56
2023-02-20T00:27:19.101Z,100557.06
2023-02-20T00:32:41.050Z,100563.78
2023-02-20T00:38:02.909Z,100557.00
2023-02-20T00:43:24.944Z,100564.84
2023-02-20T00:48:46.866Z,100572.41
2023-02-20T00:54:08.843Z,100558.84
2023-02-20T00:59:30.754Z,100581.06
2023-02-20T01:04:52.848Z,100552.84
2023-02-20T01:10:15.218Z,100569.13
2023-02-20T01:15:37.096Z,100566.56
2023-02-20T01:20:58.990Z,100562.31
2023-02-20T01:26:20.901Z,100552.03
2023-02-20T01:31:52.582Z,100541.84
2023-02-20T01:37:15.103Z,100546.84
2023-02-20T01:42:37.002Z,100546.88
2023-02-20T01:47:59.233Z,100555.41
2023-02-20T01:53:24.102Z,100544.34
2023-02-20T01:58:49.694Z,100539.25
2023-02-20T02:04:12.988Z,100529.22
2023-02-20T02:09:56.137Z,100533.47
2023-02-20T02:15:20.792Z,100517.31
2023-02-20T02:20:48.436Z,100515.69
2023-02-20T02:26:35.012Z,100504.50
2023-02-20T02:32:33.634Z,100519.06
2023-02-20T02:38:10.147Z,100525.00
2023-02-20T02:43:38.105Z,100518.22
2023-02-20T02:49:17.552Z,100507.22
2023-02-20T02:54:40.113Z,100505.47
2023-02-20T03:00:06.507Z,100520.84
2023-02-20T03:05:31.291Z,100510.44
2023-02-20T03:10:53.124Z,100509.81
2023-02-20T03:16:21.119Z,100514.88
2023-02-20T03:21:46.382Z,100520.81
2023-02-20T03:27:09.098Z,100512.28
2023-02-20T03:32:32.829Z,100508.88
2023-02-20T03:37:55.600Z,100498.66
2023-02-20T03:43:21.101Z,100513.09
2023-02-20T03:48:48.955Z,100512.25
2023-02-20T03:54:11.648Z,100501.16
2023-02-20T03:59:49.372Z,100506.22
2023-02-20T04:05:20.584Z,100507.00
2023-02-20T04:10:48.813Z,100516.34
2023-02-20T04:16:11.857Z,100504.44
2023-02-20T04:21:51.265Z,100500.25
2023-02-20T04:27:14.001Z,100460.31
2023-02-20T04:32:35.905Z,100494.28
2023-02-20T04:37:57.737Z,100483.25
2023-02-20T04:43:19.761Z,100469.59
2023-02-20T04:48:41.620Z,100457.69
2023-02-20T04:54:03.531Z,100450.09
2023-02-20T04:59:25.458Z,100460.31
2023-02-20T05:04:47.296Z,100457.75
2023-02-20T05:10:12.573Z,100454.41
2023-02-20T05:15:34.556Z,100433.25
2023-02-20T05:20:56.671Z,100438.34
2023-02-20T05:26:21.435Z,100431.66
2023-02-20T05:31:43.413Z,100439.31
2023-02-20T05:37:05.291Z,100434.25
2023-02-20T05:42:27.199Z,100447.00
2023-02-20T05:47:49.028Z,100424.09
2023-02-20T05:53:10.842Z,100393.53
2023-02-20T05:58:32.705Z,100408.75
2023-02-20T06:03:55.086Z,100408.00
2023-02-20T06:09:17.231Z,100411.50
2023-02-20T06:14:39.068Z,100402.16
2023-02-20T06:20:01.051Z,100397.97
2023-02-20T06:25:23.030Z,100390.38
2023-02-20T06:30:44.942Z,100375.94
2023-02-20T06:36:17.771Z,100384.44
2023-02-20T06:41:39.614Z,100370.84
2023-02-20T06:47:01.552Z,100374.25
2023-02-20T06:52:23.592Z,100361.53
2023-02-20T06:57:45.512Z,100357.25
2023-02-20T07:03:07.325Z,100347.88
2023-02-20T07:08:29.182Z,100357.16
2023-02-20T07:13:51.690Z,100357.84
2023-02-20T07:19:13.537Z,100327.19
2023-02-20T07:24:35.403Z,100316.44
2023-02-20T07:29:57.222Z,100318.81
2023-02-20T07:35:19.038Z,100308.03
2023-02-20T07:40:40.886Z,100336.66
2023-02-20T07:46:02.827Z,100338.44
2023-02-20T07:51:24.729Z,100320.75
2023-02-20T07:56:46.559Z,100289.47
2023-02-20T08:02:08.415Z,100280.69
2023-02-20T08:07:30.220Z,100249.66
2023-02-20T08:12:52.628Z,100248.06
2023-02-20T08:18:23.095Z,100241.81
2023-02-20T08:23:45.631Z,100240.84
2023-02-20T08:29:07.429Z,100231.03
2023-02-20T08:34:29.281Z,100222.31
2023-02-20T08:39:51.092Z,100214.75
2023-02-20T08:45:14.373Z,100200.47
2023-02-20T08:50:36.317Z,100196.25
2023-02-20T08:55:58.399Z,100188.81
2023-02-20T09:01:20.335Z,100182.28
2023-02-20T09:06:42.191Z,100164.56
2023-02-20T09:12:04.620Z,100139.78
2023-02-20T09:17:29.748Z,100103.50
2023-02-20T09:22:51.817Z,100095.03
2023-02-20T09:28:13.726Z,100110.38
2023-02-20T09:33:35.540Z,100091.00
2023-02-20T09:38:57.447Z,100052.59
2023-02-20T09:44:31.140Z,100036.53
2023-02-20T09:49:56.742Z,100015.31
2023-02-20T09:55:22.534Z,99990.59
2023-02-20T10:00:44.694Z,99976.22
2023-02-20T10:06:16.988Z,99948.13
2023-02-20T10:11:46.387Z,99942.25
2023-02-20T10:17:17.343Z,99933.78
2023-02-20T10:23:04.281Z,99912.59
2023-02-20T10:28:26.921Z,99889.63
2023-02-20T10:34:02.630Z,99899.03
2023-02-20T10:39:25.588Z,99867.72
2023-02-20T10:45:02.280Z,99880.44
2023-02-20T10:50:32.332Z,99860.13
2023-02-20T10:56:21.360Z,99826.19
2023-02-20T11:01:44.047Z,99812.72
2023-02-20T11:07:13.831Z,99795.44
2023-02-20T11:12:51.336Z,99791.41
2023-02-20T11:18:35.194Z,99784.56
2023-02-20T11:23:57.071Z,99745.50
2023-02-20T11:29:22.521Z,99620.72
2023-02-20T11:34:44.642Z,99673.31
2023-02-20T11:40:17.190Z,99639.19
2023-02-20T11:45:39.815Z,99632.34
2023-02-20T11:51:01.841Z,99589.69
2023-02-20T11:56:23.703Z,99572.47
2023-02-20T12:01:59.218Z,99539.25
2023-02-20T12:07:22.545Z,99533.03
2023-02-20T12:12:44.411Z,99504.38
2023-02-20T12:18:45.236Z,99453.97
2023-02-20T12:24:14.320Z,99457.59
2023-02-20T12:29:36.094Z,99457.69
2023-02-20T12:35:24.277Z,99445.31
2023-02-20T12:40:55.090Z,99436.34
2023-02-20T12:46:23.642Z,99450.34
2023-02-20T12:52:22.418Z,99446.03
2023-02-20T12:58:03.069Z,99436.25
2023-02-20T13:03:39.739Z,99446.63
2023-02-20T13:09:13.578Z,99459.09
2023-02-20T13:14:55.251Z,99430.25
2023-02-20T13:20:24.877Z,99432.84
2023-02-20T13:25:50.789Z,99419.88
2023-02-20T13:31:42.807Z,99413.16
2023-02-20T13:37:25.714Z,99393.34
2023-02-20T13:42:47.567Z,99383.59
2023-02-20T13:48:30.563Z,99363.13
2023-02-20T13:54:17.956Z,99342.56
2023-02-20T13:59:40.437Z,99333.44
2023-02-20T14:05:06.110Z,99338.78
2023-02-20T14:10:32.391Z,99339.25
2023-02-20T14:15:56.722Z,99305.75
2023-02-20T14:21:21.089Z,99300.44
2023-02-20T14:26:42.975Z,99319.72
2023-02-20T14:32:05.109Z,99301.75
2023-02-20T14:37:41.570Z,99301.34
2023-02-20T14:43:08.348Z,99287.72
2023-02-20T14:48:33.189Z,99260.66
2023-02-20T14:54:10.665Z,99270.59
2023-02-20T14:59:36.209Z,99228.69
2023-02-20T15:05:04.749Z,99251.91
2023-02-20T15:10:36.416Z,99221.38
2023-02-20T15:16:14.710Z,99186.28
2023-02-20T15:21:42.968Z,99210.53
2023-02-20T15:27:10.465Z,99233.47
2023-02-20T15:32:32.414Z,99198.59
2023-02-20T15:37:56.319Z,99183.78
2023-02-20T15:49:01.812Z,99203.59
2023-02-20T15:54:23.759Z,99174.97
2023-02-20T15:59:46.639Z,99182.97
2023-02-20T16:05:08.432Z,99161.88
2023-02-20T16:10:30.251Z,99173.41
2023-02-20T16:15:52.284Z,99153.31
2023-02-20T16:21:17.939Z,99167.19
2023-02-20T16:26:44.138Z,99161.56
2023-02-20T16:32:06.128Z,99162.38
2023-02-20T16:37:28.006Z,99133.28
2023-02-20T16:42:49.895Z,99148.41
2023-02-20T16:48:17.104Z,99147.31
2023-02-20T16:53:38.922Z,99141.06
2023-02-20T16:59:00.807Z,99122.09
2023-02-20T17:04:22.649Z,99139.97
2023-02-20T17:09:46.807Z,99144.63
2023-02-20T17:15:09.564Z,99137.72
2023-02-20T17:20:31.539Z,99137.31
2023-02-20T17:25:53.451Z,99115.28
2023-02-20T17:31:15.616Z,99104.78
2023-02-20T17:36:37.684Z,99116.47
2023-02-20T17:41:59.746Z,99108.78
2023-02-20T17:47:23.087Z,99096.47
2023-02-20T17:52:44.969Z,99085.44
2023-02-20T17:58:07.454Z,99088.94
2023-02-20T18:03:29.378Z,99074.81
2023-02-20T18:08:51.285Z,99086.50
2023-02-20T18:14:14.438Z,99092.41
2023-02-20T18:19:36.389Z,99088.13
2023-02-20T18:24:58.217Z,99101.72
2023-02-20T18:30:20.301Z,99094.03
2023-02-20T18:35:42.196Z,99090.38
2023-02-20T18:41:04.406Z,99063.72
2023-02-20T18:46:29.666Z,99072.66
2023-02-20T18:51:51.808Z,99073.41
2023-02-20T18:57:13.937Z,99081.72
2023-02-20T19:02:35.794Z,99064.09
2023-02-20T19:07:57.784Z,99088.78
2023-02-20T19:13:19.673Z,99085.00
2023-02-20T19:18:49.849Z,99080.28
2023-02-20T19:24:12.129Z,99076.59
2023-02-20T19:29:34.485Z,99072.34
2023-02-20T19:34:56.327Z,99086.56
2023-02-20T19:40:18.297Z,99070.56
2023-02-20T19:45:40.189Z,99059.31
2023-02-20T19:51:02.192Z,99057.72
2023-02-20T19:56:23.979Z,99049.50
2023-02-20T20:01:55.369Z,99062.78
2023-02-20T20:07:17.185Z,99049.25
2023-02-20T20:12:39.049Z,99058.25
2023-02-20T20:18:01.524Z,99041.50
2023-02-20T20:23:23.330Z,99047.78
2023-02-20T20:28:45.131Z,99068.09
2023-02-20T20:34:07.814Z,99057.47
2023-02-20T20:39:29.666Z,99070.31
2023-02-20T20:44:56.159Z,99050.66
2023-02-20T20:50:20.957Z,99061.69
2023-02-20T20:55:43.045Z,99056.75
2023-02-20T21:01:05.919Z,99046.88
2023-02-20T21:06:27.839Z,99057.59
2023-02-20T21:11:49.811Z,99068.78
2023-02-20T21:17:12.964Z,99066.84
2023-02-20T21:22:35.367Z,99069.81
2023-02-20T21:27:57.745Z,99084.53
2023-02-20T21:33:20.540Z,99062.22
2023-02-20T21:38:42.440Z,99051.19
2023-02-20T21:44:04.540Z,99070.84
2023-02-20T21:49:27.844Z,99063.06
2023-02-20T21:54:51.805Z,99078.34
2023-02-20T22:00:15.194Z,99074.19
2023-02-20T22:05:37.180Z,99049.31
2023-02-20T22:11:00.235Z,99061.13
2023-02-20T22:16:22.179Z,99051.81
2023-02-20T22:21:43.985Z,99077.06
2023-02-20T22:27:07.577Z,99087.22
2023-02-20T22:32:29.668Z,99078.69
2023-02-20T22:37:51.621Z,99069.75
2023-02-20T22:43:13.736Z,99076.66
2023-02-20T22:48:35.632Z,99080.69
2023-02-20T22:53:57.507Z,99077.50
2023-02-20T22:59:19.341Z,99072.97
2023-02-20T23:04:41.185Z,99077.06
2023-02-20T23:10:03.455Z,99079.13
2023-02-20T23:15:25.301Z,99080.25
2023-02-20T23:20:47.147Z,99085.81
2023-02-20T23:26:10.993Z,99096.16
2023-02-20T23:31:34.159Z,99087.22
2023-02-20T23:36:56.095Z,99087.53
2023-02-20T23:42:18.627Z,99109.38
2023-02-20T23:47:40.784Z,99096.81
2023-02-20T23:53:02.648Z,99104.91
2023-02-20T23:58:24.493Z,99095.09
